createdAt,value
2022-08-22T00:03:10.471Z,3.20
2022-08-22T00:03:12.734Z,3.40
2022-08-22T00:04:07.815Z,3.50
2022-08-22T00:06:43.903Z,3.10
2022-08-22T00:09:37.831Z,3.47
2022-08-22T00:12:19.791Z,3.60
2022-08-22T00:15:42.256Z,3.67
2022-08-22T00:18:20.320Z,3.20
2022-08-22T00:21:05.815Z,3.40
2022-08-22T00:23:45.609Z,3.80
2022-08-22T00:26:30.124Z,3.53
2022-08-22T00:29:02.940Z,3.50
2022-08-22T00:31:35.156Z,3.75
2022-08-22T00:34:08.206Z,3.70
2022-08-22T00:36:59.116Z,3.55
2022-08-22T00:39:31.629Z,3.47
2022-08-22T00:42:10.462Z,3.28
2022-08-22T00:44:43.095Z,3.53
2022-08-22T00:47:32.163Z,3.30
2022-08-22T00:50:17.749Z,3.50
2022-08-22T00:53:02.644Z,3.40
2022-08-22T00:55:32.160Z,3.35
2022-08-22T00:58:38.805Z,3.55
2022-08-22T01:01:09.837Z,3.07
2022-08-22T01:03:42.250Z,3.10
2022-08-22T01:06:44.069Z,3.40
2022-08-22T01:09:25.908Z,3.28
2022-08-22T01:12:11.873Z,2.83
2022-08-22T01:14:48.278Z,2.90
2022-08-22T01:17:35.866Z,3.25
2022-08-22T01:20:50.395Z,3.20
2022-08-22T01:23:19.576Z,3.10
2022-08-22T01:26:30.140Z,3.47
2022-08-22T01:29:11.608Z,3.73
2022-08-22T01:32:15.645Z,3.40
2022-08-22T01:34:54.047Z,3.15
2022-08-22T01:37:53.950Z,3.53
2022-08-22T01:40:35.940Z,3.47
2022-08-22T01:43:59.062Z,3.80
2022-08-22T01:46:46.550Z,3.33
2022-08-22T01:49:29.562Z,3.53
2022-08-22T01:52:04.166Z,3.42
2022-08-22T01:54:43.390Z,3.70
2022-08-22T01:57:11.305Z,3.57
2022-08-22T01:59:44.176Z,3.50
2022-08-22T02:02:32.069Z,3.58
2022-08-22T02:05:22.008Z,3.58
2022-08-22T02:08:10.247Z,3.38
2022-08-22T02:11:01.471Z,3.50
2022-08-22T02:13:49.844Z,3.50
2022-08-22T02:16:36.185Z,3.60
2022-08-22T02:19:11.698Z,3.65
2022-08-22T02:22:04.455Z,3.63
2022-08-22T02:24:33.577Z,3.60
2022-08-22T02:27:35.338Z,3.90
2022-08-22T02:30:13.032Z,3.70
2022-08-22T02:32:58.219Z,3.80
2022-08-22T02:35:35.526Z,3.80
2022-08-22T02:38:42.797Z,3.50
2022-08-22T02:41:09.136Z,3.47
2022-08-22T02:43:43.693Z,3.70
2022-08-22T02:46:30.088Z,3.92
2022-08-22T02:49:23.103Z,3.80
2022-08-22T02:52:14.525Z,3.67
2022-08-22T02:55:00.782Z,3.60
2022-08-22T02:57:39.691Z,3.78
2022-08-22T03:00:32.673Z,3.85
2022-08-22T03:02:59.469Z,3.95
2022-08-22T03:05:28.769Z,3.90
2022-08-22T03:08:24.915Z,3.75
2022-08-22T03:11:24.352Z,3.85
2022-08-22T03:14:04.766Z,3.63
2022-08-22T03:16:48.540Z,3.83
2022-08-22T03:19:49.317Z,3.63
2022-08-22T03:22:35.952Z,3.50
2022-08-22T03:25:14.484Z,4.00
2022-08-22T03:27:49.467Z,3.75
2022-08-22T03:30:21.765Z,3.65
2022-08-22T03:32:52.060Z,3.67
2022-08-22T03:35:49.780Z,3.70
2022-08-22T03:38:34.538Z,3.60
2022-08-22T03:41:09.932Z,3.95
2022-08-22T03:43:58.273Z,3.58
2022-08-22T03:47:01.947Z,3.20
2022-08-22T03:49:48.660Z,3.60
2022-08-22T03:52:59.986Z,3.90
2022-08-22T03:55:52.145Z,3.67
2022-08-22T03:58:30.664Z,4.00
2022-08-22T04:01:23.384Z,3.87
2022-08-22T04:03:59.902Z,3.60
2022-08-22T04:06:45.251Z,3.60
2022-08-22T04:09:44.501Z,3.60
2022-08-22T04:12:41.227Z,3.65
2022-08-22T04:15:39.710Z,3.77
2022-08-22T04:18:41.715Z,3.65
2022-08-22T04:21:11.765Z,3.70
2022-08-22T04:24:10.933Z,3.70
2022-08-22T04:26:58.078Z,3.80
2022-08-22T04:29:27.494Z,4.10
2022-08-22T04:32:04.019Z,6.45
2022-08-22T04:34:37.598Z,5.32
2022-08-22T04:37:14.595Z,4.55
2022-08-22T04:39:58.855Z,4.38
2022-08-22T04:42:47.878Z,4.30
2022-08-22T04:45:23.785Z,4.45
2022-08-22T04:47:56.877Z,4.22
2022-08-22T04:50:28.917Z,4.00
2022-08-22T04:53:32.601Z,4.20
2022-08-22T04:56:10.531Z,3.83
2022-08-22T04:59:01.257Z,4.25
2022-08-22T05:01:47.995Z,4.10
2022-08-22T05:04:30.533Z,3.83
2022-08-22T05:07:05.292Z,3.80
2022-08-22T05:09:36.011Z,4.13
2022-08-22T05:12:11.913Z,4.25
2022-08-22T05:14:44.568Z,3.80
2022-08-22T05:17:17.046Z,4.45
2022-08-22T05:19:50.605Z,4.28
2022-08-22T05:22:23.793Z,4.20
2022-08-22T05:24:56.284Z,4.20
2022-08-22T05:27:30.491Z,4.45
2022-08-22T05:30:18.685Z,4.40
2022-08-22T05:32:53.053Z,5.05
2022-08-22T05:35:32.685Z,4.43
2022-08-22T05:37:59.952Z,4.30
2022-08-22T05:40:29.105Z,4.13
2022-08-22T05:42:57.693Z,4.40
2022-08-22T05:45:26.364Z,4.22
2022-08-22T05:48:00.026Z,4.10
2022-08-22T05:50:37.860Z,4.60
2022-08-22T05:53:20.451Z,4.60
2022-08-22T05:55:49.923Z,4.40
2022-08-22T05:58:43.742Z,4.00
2022-08-22T06:01:35.349Z,3.90
2022-08-22T06:04:37.599Z,3.45
2022-08-22T06:07:23.465Z,3.30
2022-08-22T06:10:32.978Z,3.30
2022-08-22T06:13:14.053Z,3.22
2022-08-22T06:15:56.948Z,3.47
2022-08-22T06:18:26.908Z,3.28
2022-08-22T06:21:00.647Z,3.20
2022-08-22T06:23:33.803Z,3.13
2022-08-22T06:26:01.759Z,3.22
2022-08-22T06:28:34.249Z,2.97
2022-08-22T06:31:03.447Z,3.00
2022-08-22T06:33:35.128Z,3.05
2022-08-22T06:36:25.425Z,3.13
2022-08-22T06:38:53.857Z,3.08
2022-08-22T06:41:22.783Z,3.20
2022-08-22T06:43:52.695Z,2.70
2022-08-22T06:46:22.117Z,2.90
2022-08-22T06:48:49.133Z,2.70
2022-08-22T06:51:17.843Z,2.75
2022-08-22T06:53:48.475Z,3.17
2022-08-22T06:56:25.347Z,2.70
2022-08-22T06:58:58.454Z,2.60
2022-08-22T07:01:31.072Z,2.90
2022-08-22T07:04:08.147Z,2.65
2022-08-22T07:06:41.485Z,2.50
2022-08-22T07:09:19.814Z,3.03
2022-08-22T07:11:46.685Z,2.45
2022-08-22T07:14:17.314Z,3.13
2022-08-22T07:16:57.620Z,2.70
2022-08-22T07:19:28.190Z,2.63
2022-08-22T07:21:55.897Z,2.72
2022-08-22T07:24:28.377Z,2.70
2022-08-22T07:27:04.707Z,2.50
2022-08-22T07:30:13.931Z,2.40
2022-08-22T07:32:46.248Z,2.43
2022-08-22T07:35:17.639Z,2.42
2022-08-22T07:37:53.568Z,2.33
2022-08-22T07:40:41.699Z,1.80
2022-08-22T07:43:26.880Z,1.67
2022-08-22T07:46:19.229Z,1.80
2022-08-22T07:49:08.105Z,1.90
2022-08-22T07:51:42.972Z,1.85
2022-08-22T07:54:14.210Z,1.70
2022-08-22T07:56:46.450Z,1.80
2022-08-22T07:59:17.169Z,1.80
2022-08-22T08:01:46.777Z,1.98
2022-08-22T08:04:18.939Z,1.67
2022-08-22T08:06:50.671Z,1.70
2022-08-22T08:09:19.615Z,1.88
2022-08-22T08:11:51.784Z,1.97
2022-08-22T08:14:21.900Z,1.75
2022-08-22T08:16:51.312Z,1.83
2022-08-22T08:19:19.842Z,1.60
2022-08-22T08:21:53.576Z,1.85
2022-08-22T08:24:28.920Z,1.50
2022-08-22T08:27:25.237Z,1.70
2022-08-22T08:29:58.817Z,1.90
2022-08-22T08:32:30.210Z,1.98
2022-08-22T08:34:56.707Z,2.00
2022-08-22T08:37:33.390Z,1.53
2022-08-22T08:40:02.619Z,1.92
2022-08-22T08:43:10.915Z,1.90
2022-08-22T08:46:15.016Z,1.65
2022-08-22T08:49:25.195Z,1.70
2022-08-22T08:52:21.126Z,1.80
2022-08-22T08:55:21.925Z,1.65
2022-08-22T08:58:06.736Z,2.00
2022-08-22T09:00:45.766Z,1.90
2022-08-22T09:03:53.099Z,1.80
2022-08-22T09:06:52.918Z,1.73
2022-08-22T09:09:41.705Z,1.50
2022-08-22T09:12:56.149Z,1.80
2022-08-22T09:16:02.249Z,1.52
2022-08-22T09:18:51.075Z,1.70
2022-08-22T09:21:30.535Z,1.57
2022-08-22T09:24:23.261Z,1.80
2022-08-22T09:26:57.225Z,1.58
2022-08-22T09:29:54.496Z,1.70
2022-08-22T09:32:42.902Z,1.67
2022-08-22T09:38:34.627Z,1.73
2022-08-22T09:40:16.124Z,1.80
2022-08-22T09:41:13.496Z,1.75
2022-08-22T09:43:52.184Z,1.77
2022-08-22T09:46:29.444Z,1.70
2022-08-22T09:49:16.572Z,1.80
2022-08-22T09:51:54.967Z,1.70
2022-08-22T09:54:35.782Z,1.92
2022-08-22T09:57:16.628Z,2.03
2022-08-22T10:00:16.281Z,2.08
2022-08-22T10:03:32.983Z,2.00
2022-08-22T10:06:12.717Z,1.85
2022-08-22T10:08:56.453Z,2.38
2022-08-22T10:11:26.818Z,2.50
2022-08-22T10:14:08.029Z,2.13
2022-08-22T10:17:11.774Z,1.73
2022-08-22T10:19:40.778Z,2.00
2022-08-22T10:22:23.049Z,2.20
2022-08-22T10:25:07.918Z,2.28
2022-08-22T10:27:40.303Z,2.30
2022-08-22T10:30:13.365Z,2.20
2022-08-22T10:32:59.123Z,2.30
2022-08-22T10:35:40.694Z,2.30
2022-08-22T10:38:15.473Z,2.10
2022-08-22T10:40:53.069Z,1.83
2022-08-22T10:43:21.827Z,1.63
2022-08-22T10:46:03.625Z,2.10
2022-08-22T10:48:47.063Z,1.60
2022-08-22T10:51:35.546Z,1.95
2022-08-22T10:54:29.315Z,1.80
2022-08-22T10:57:31.210Z,1.90
2022-08-22T11:00:25.618Z,1.92
2022-08-22T11:03:20.008Z,2.20
2022-08-22T11:05:50.818Z,1.88
2022-08-22T11:08:34.601Z,1.77
2022-08-22T11:11:04.120Z,1.90
2022-08-22T11:14:08.341Z,1.77
2022-08-22T11:16:46.815Z,1.70
2022-08-22T11:19:38.374Z,1.42
2022-08-22T11:22:42.521Z,1.42
2022-08-22T11:25:13.398Z,1.70
2022-08-22T11:28:00.800Z,1.90
2022-08-22T11:30:36.421Z,2.10
2022-08-22T11:33:32.509Z,1.85
2022-08-22T11:36:33.422Z,1.80
2022-08-22T11:39:10.000Z,1.57
2022-08-22T11:41:52.412Z,1.35
2022-08-22T11:44:50.082Z,1.67
2022-08-22T11:47:26.876Z,1.70
2022-08-22T11:50:25.149Z,2.08
2022-08-22T11:53:11.702Z,1.60
2022-08-22T11:55:50.943Z,1.90
2022-08-22T11:58:33.488Z,1.90
2022-08-22T12:01:17.408Z,1.60
2022-08-22T12:03:58.654Z,1.70
2022-08-22T12:06:51.309Z,1.73
2022-08-22T12:09:47.733Z,1.70
2022-08-22T12:12:20.230Z,1.42
2022-08-22T12:15:21.601Z,1.60
2022-08-22T12:18:21.298Z,1.70
2022-08-22T12:21:31.733Z,1.50
2022-08-22T12:24:19.246Z,1.58
2022-08-22T12:27:07.769Z,1.58
2022-08-22T12:30:13.830Z,1.70
2022-08-22T12:33:23.306Z,1.50
2022-08-22T12:35:57.074Z,1.30
2022-08-22T12:38:37.977Z,1.60
2022-08-22T12:41:28.219Z,1.58
2022-08-22T12:44:37.044Z,1.40
2022-08-22T12:47:12.297Z,1.50
2022-08-22T12:50:03.282Z,1.63
2022-08-22T12:52:38.827Z,1.60
2022-08-22T12:55:26.762Z,1.70
2022-08-22T12:58:20.086Z,1.70
2022-08-22T13:00:49.051Z,1.70
2022-08-22T13:03:29.779Z,1.60
2022-08-22T13:06:00.199Z,1.50
2022-08-22T13:08:32.559Z,1.90
2022-08-22T13:11:22.253Z,1.55
2022-08-22T13:13:56.457Z,1.80
2022-08-22T13:16:26.103Z,1.67
2022-08-22T13:18:57.552Z,1.98
2022-08-22T13:21:36.530Z,1.65
2022-08-22T13:24:52.644Z,1.50
2022-08-22T13:27:40.052Z,1.70
2022-08-22T13:30:31.836Z,1.70
2022-08-22T13:33:04.441Z,1.90
2022-08-22T13:35:51.673Z,1.80
2022-08-22T13:38:26.164Z,1.40
2022-08-22T13:40:55.504Z,2.05
2022-08-22T13:43:28.052Z,1.70
2022-08-22T13:46:01.826Z,1.90
2022-08-22T13:48:49.875Z,1.80
2022-08-22T13:51:56.713Z,1.80
2022-08-22T13:54:55.687Z,1.80
2022-08-22T13:57:38.672Z,2.00
2022-08-22T14:00:28.838Z,1.85
2022-08-22T14:03:05.557Z,1.80
2022-08-22T14:05:39.100Z,2.30
2022-08-22T14:08:18.505Z,2.00
2022-08-22T14:11:10.246Z,2.33
2022-08-22T14:13:44.613Z,2.10
2022-08-22T14:16:24.569Z,2.38
2022-08-22T14:18:57.690Z,2.40
2022-08-22T14:21:40.513Z,2.40
2022-08-22T14:24:27.218Z,2.50
2022-08-22T14:27:05.255Z,2.30
2022-08-22T14:29:50.378Z,2.40
2022-08-22T14:32:25.847Z,2.47
2022-08-22T14:35:01.708Z,2.33
2022-08-22T14:37:39.338Z,2.20
2022-08-22T14:40:09.604Z,2.35
2022-08-22T14:42:50.844Z,2.60
2022-08-22T14:45:30.453Z,2.28
2022-08-22T14:48:30.660Z,2.55
2022-08-22T14:51:00.850Z,2.20
2022-08-22T14:53:33.022Z,2.20
2022-08-22T14:56:05.482Z,2.40
2022-08-22T14:58:36.875Z,2.20
2022-08-22T15:01:10.840Z,2.63
2022-08-22T15:03:40.298Z,2.17
2022-08-22T15:06:13.424Z,2.42
2022-08-22T15:08:46.328Z,2.35
2022-08-22T15:11:21.869Z,1.90
2022-08-22T15:14:02.731Z,2.30
2022-08-22T15:16:56.012Z,2.10
2022-08-22T15:19:46.975Z,2.10
2022-08-22T15:22:27.698Z,2.17
2022-08-22T15:25:04.059Z,2.30
2022-08-22T15:27:35.629Z,2.10
2022-08-22T15:30:07.563Z,2.13
2022-08-22T15:32:48.835Z,1.77
2022-08-22T15:35:27.832Z,2.30
2022-08-22T15:38:01.739Z,2.05
2022-08-22T15:40:41.493Z,2.50
2022-08-22T15:43:35.245Z,2.20
2022-08-22T15:46:18.143Z,2.00
2022-08-22T15:48:54.626Z,2.05
2022-08-22T15:51:37.993Z,2.10
2022-08-22T15:54:24.830Z,1.90
2022-08-22T15:56:55.936Z,2.10
2022-08-22T15:59:31.431Z,1.92
2022-08-22T16:02:23.483Z,2.45
2022-08-22T16:04:54.480Z,2.15
2022-08-22T16:07:42.414Z,1.83
2022-08-22T16:10:24.059Z,1.80
2022-08-22T16:13:14.429Z,2.00
2022-08-22T16:15:46.880Z,2.20
2022-08-22T16:18:36.840Z,1.70
2022-08-22T16:21:08.400Z,2.03
2022-08-22T16:23:49.884Z,1.70
2022-08-22T16:26:31.289Z,1.98
2022-08-22T16:29:07.100Z,2.33
2022-08-22T16:31:48.829Z,2.05
2022-08-22T16:34:18.280Z,2.20
2022-08-22T16:37:08.064Z,2.27
2022-08-22T16:39:34.420Z,2.30
2022-08-22T16:42:13.058Z,2.20
2022-08-22T16:44:55.651Z,2.38
2022-08-22T16:47:32.593Z,2.25
2022-08-22T16:50:26.943Z,2.13
2022-08-22T16:52:58.254Z,1.80
2022-08-22T16:55:30.633Z,2.03
2022-08-22T16:58:18.128Z,1.88
2022-08-22T17:01:18.314Z,2.03
2022-08-22T17:04:00.052Z,2.13
2022-08-22T17:06:52.691Z,2.08
2022-08-22T17:09:49.219Z,2.05
2022-08-22T17:12:38.516Z,1.85
2022-08-22T17:15:23.257Z,1.90
2022-08-22T17:18:11.686Z,1.90
2022-08-22T17:21:00.629Z,2.00
2022-08-22T17:23:53.954Z,2.08
2022-08-22T17:26:30.837Z,1.70
2022-08-22T17:29:03.376Z,1.90
2022-08-22T17:31:59.341Z,2.27
2022-08-22T17:34:37.880Z,2.00
2022-08-22T17:37:17.977Z,2.30
2022-08-22T17:40:06.390Z,1.95
2022-08-22T17:42:37.523Z,2.10
2022-08-22T17:45:24.512Z,1.90
2022-08-22T17:48:12.031Z,1.88
2022-08-22T17:50:47.972Z,1.90
2022-08-22T17:53:30.372Z,1.98
2022-08-22T17:56:14.494Z,2.00
2022-08-22T17:58:54.285Z,2.40
2022-08-22T18:01:47.896Z,1.83
2022-08-22T18:04:22.207Z,2.00
2022-08-22T18:06:56.546Z,2.05
2022-08-22T18:09:31.215Z,2.28
2022-08-22T18:12:07.920Z,2.30
2022-08-22T18:14:55.139Z,2.20
2022-08-22T18:17:33.259Z,2.20
2022-08-22T18:20:16.868Z,2.25
2022-08-22T18:22:48.631Z,1.90
2022-08-22T18:25:18.131Z,2.13
2022-08-22T18:28:08.187Z,2.22
2022-08-22T18:30:49.047Z,2.10
2022-08-22T18:33:40.533Z,2.08
2022-08-22T18:36:10.633Z,2.05
2022-08-22T18:38:54.109Z,2.30
2022-08-22T18:41:28.629Z,2.10
2022-08-22T18:43:58.538Z,2.20
2022-08-22T18:46:27.541Z,2.00
2022-08-22T18:49:14.562Z,1.98
2022-08-22T18:51:41.619Z,1.97
2022-08-22T18:54:07.971Z,2.05
2022-08-22T18:56:43.387Z,1.70
2022-08-22T18:59:26.934Z,1.92
2022-08-22T19:02:37.171Z,1.83
2022-08-22T19:05:18.797Z,1.80
2022-08-22T19:07:57.239Z,2.03
2022-08-22T19:10:46.594Z,2.03
2022-08-22T19:13:43.065Z,1.90
2022-08-22T19:16:57.164Z,1.70
2022-08-22T19:20:01.198Z,1.67
2022-08-22T19:22:34.395Z,1.70
2022-08-22T19:25:15.711Z,2.00
2022-08-22T19:28:14.148Z,1.80
2022-08-22T19:30:41.028Z,2.00
2022-08-22T19:33:12.188Z,1.90
2022-08-22T19:35:41.429Z,2.20
2022-08-22T19:38:09.600Z,2.10
2022-08-22T19:40:44.788Z,2.20
2022-08-22T19:43:29.979Z,2.10
2022-08-22T19:45:58.599Z,2.00
2022-08-22T19:48:44.430Z,2.10
2022-08-22T19:51:12.769Z,2.10
2022-08-22T19:53:47.333Z,2.10
2022-08-22T19:56:43.519Z,2.03
2022-08-22T19:59:21.836Z,2.10
2022-08-22T20:02:01.863Z,2.38
2022-08-22T20:04:50.614Z,2.30
2022-08-22T20:07:52.985Z,2.15
2022-08-22T20:10:25.239Z,2.20
2022-08-22T20:13:10.266Z,2.50
2022-08-22T20:16:01.451Z,2.17
2022-08-22T20:19:06.597Z,2.20
2022-08-22T20:21:55.078Z,2.40
2022-08-22T20:24:44.124Z,2.50
2022-08-22T20:27:18.123Z,1.90
2022-08-22T20:29:52.988Z,2.00
2022-08-22T20:32:23.206Z,2.30
2022-08-22T20:34:55.180Z,2.20
2022-08-22T20:37:40.200Z,2.20
2022-08-22T20:40:54.639Z,2.03
2022-08-22T20:43:47.292Z,2.25
2022-08-22T20:46:54.983Z,2.25
2022-08-22T20:49:23.948Z,2.10
2022-08-22T20:51:54.982Z,2.35
2022-08-22T20:54:25.372Z,2.10
2022-08-22T20:57:10.100Z,2.30
2022-08-22T20:59:59.334Z,1.90
2022-08-22T21:02:33.804Z,2.38
2022-08-22T21:05:18.490Z,2.40
2022-08-22T21:07:48.553Z,2.40
2022-08-22T21:10:40.135Z,2.20
2022-08-22T21:13:10.732Z,2.58
2022-08-22T21:15:57.587Z,2.30
2022-08-22T21:18:32.058Z,2.95
2022-08-22T21:21:34.474Z,2.50
2022-08-22T21:24:06.422Z,2.30
2022-08-22T21:26:37.513Z,2.40
2022-08-22T21:29:13.085Z,2.38
2022-08-22T21:31:44.538Z,2.60
2022-08-22T21:34:17.222Z,2.43
2022-08-22T21:36:43.851Z,2.40
2022-08-22T21:39:19.705Z,2.58
2022-08-22T21:42:01.449Z,2.50
2022-08-22T21:44:30.949Z,2.70
2022-08-22T21:47:14.768Z,2.30
2022-08-22T21:50:15.811Z,2.90
2022-08-22T21:52:55.928Z,3.10
2022-08-22T21:55:37.553Z,2.90
2022-08-22T21:58:07.341Z,2.60
2022-08-22T22:00:49.649Z,2.90
2022-08-22T22:03:19.303Z,2.75
2022-08-22T22:05:46.871Z,2.95
2022-08-22T22:08:13.490Z,2.40
2022-08-22T22:10:42.184Z,2.60
2022-08-22T22:13:09.037Z,2.50
2022-08-22T22:15:45.748Z,2.60
2022-08-22T22:18:14.587Z,2.60
2022-08-22T22:20:42.081Z,2.80
2022-08-22T22:23:09.512Z,2.72
2022-08-22T22:25:41.357Z,3.10
2022-08-22T22:28:14.657Z,2.72
2022-08-22T22:30:42.240Z,2.90
2022-08-22T22:33:09.467Z,2.90
2022-08-22T22:35:39.132Z,3.00
2022-08-22T22:38:06.351Z,2.70
2022-08-22T22:40:32.897Z,2.90
2022-08-22T22:42:59.372Z,2.90
2022-08-22T22:45:25.902Z,3.00
2022-08-22T22:47:52.748Z,3.13
2022-08-22T22:50:19.532Z,3.40
2022-08-22T22:52:45.990Z,3.10
2022-08-22T22:55:12.742Z,3.40
2022-08-22T22:57:58.463Z,3.30
2022-08-22T23:00:30.539Z,3.85
2022-08-22T23:02:59.089Z,3.47
2022-08-22T23:05:25.533Z,3.70
2022-08-22T23:07:51.911Z,3.80
2022-08-22T23:10:21.958Z,3.55
2022-08-22T23:12:48.898Z,3.28
2022-08-22T23:15:15.313Z,3.80
2022-08-22T23:17:42.550Z,3.95
2022-08-22T23:20:09.307Z,3.95
2022-08-22T23:22:35.776Z,3.88
2022-08-22T23:25:02.360Z,3.72
2022-08-22T23:27:28.900Z,3.63
2022-08-22T23:29:55.379Z,3.60
2022-08-22T23:32:21.755Z,3.70
2022-08-22T23:34:48.803Z,3.97
2022-08-22T23:37:20.448Z,3.75
2022-08-22T23:39:47.733Z,3.77
2022-08-22T23:42:15.178Z,4.07
2022-08-22T23:44:42.424Z,3.65
2022-08-22T23:47:10.135Z,3.67
2022-08-22T23:49:38.643Z,4.28
2022-08-22T23:52:06.905Z,4.10
2022-08-22T23:54:34.170Z,4.32
2022-08-22T23:57:11.599Z,4.43
2022-08-22T23:59:44.555Z,4.00
